sensor_id;sensor_type;location;lat;lon;timestamp;temperature;humidity
21502;DHT22;27639;48.674;9.242;2022-12-01T00:00:29;7.80;60.10
21502;DHT22;27639;48.674;9.242;2022-12-01T00:02:55;7.80;60.20
21502;DHT22;27639;48.674;9.242;2022-12-01T00:05:20;7.80;60.20
21502;DHT22;27639;48.674;9.242;2022-12-01T00:07:47;7.80;60.10
21502;DHT22;27639;48.674;9.242;2022-12-01T00:10:13;7.70;60.20
21502;DHT22;27639;48.674;9.242;2022-12-01T00:12:57;7.70;60.30
21502;DHT22;27639;48.674;9.242;2022-12-01T00:15:25;7.70;60.30
21502;DHT22;27639;48.674;9.242;2022-12-01T00:17:51;7.80;60.20
21502;DHT22;27639;48.674;9.242;2022-12-01T00:20:17;7.70;60.10
21502;DHT22;27639;48.674;9.242;2022-12-01T00:22:44;7.80;60.20
21502;DHT22;27639;48.674;9.242;2022-12-01T00:25:11;7.70;60.20
21502;DHT22;27639;48.674;9.242;2022-12-01T00:27:37;7.70;60.20
21502;DHT22;27639;48.674;9.242;2022-12-01T00:30:04;7.80;60.20
21502;DHT22;27639;48.674;9.242;2022-12-01T00:32:30;7.80;60.40
21502;DHT22;27639;48.674;9.242;2022-12-01T00:34:55;7.80;60.60
21502;DHT22;27639;48.674;9.242;2022-12-01T00:37:21;7.80;60.40
21502;DHT22;27639;48.674;9.242;2022-12-01T00:39:46;7.80;60.30
21502;DHT22;27639;48.674;9.242;2022-12-01T00:42:12;7.80;60.20
21502;DHT22;27639;48.674;9.242;2022-12-01T00:44:38;7.80;60.20
21502;DHT22;27639;48.674;9.242;2022-12-01T00:47:03;7.80;60.20
21502;DHT22;27639;48.674;9.242;2022-12-01T00:49:29;7.80;60.20
21502;DHT22;27639;48.674;9.242;2022-12-01T00:51:54;7.80;60.20
21502;DHT22;27639;48.674;9.242;2022-12-01T00:54:20;7.80;60.30
21502;DHT22;27639;48.674;9.242;2022-12-01T00:56:45;7.80;60.30
21502;DHT22;27639;48.674;9.242;2022-12-01T00:59:11;7.80;60.40
21502;DHT22;27639;48.674;9.242;2022-12-01T01:01:38;7.80;60.30
21502;DHT22;27639;48.674;9.242;2022-12-01T01:04:03;7.80;60.20
21502;DHT22;27639;48.674;9.242;2022-12-01T01:06:29;7.80;60.20
21502;DHT22;27639;48.674;9.242;2022-12-01T01:08:55;7.80;59.90
21502;DHT22;27639;48.674;9.242;2022-12-01T01:11:20;7.80;60.10
21502;DHT22;27639;48.674;9.242;2022-12-01T01:13:46;7.70;60.10
21502;DHT22;27639;48.674;9.242;2022-12-01T01:16:17;7.70;59.90
21502;DHT22;27639;48.674;9.242;2022-12-01T01:18:44;7.70;60.00
21502;DHT22;27639;48.674;9.242;2022-12-01T01:21:12;7.70;60.10
21502;DHT22;27639;48.674;9.242;2022-12-01T01:23:38;7.70;60.10
21502;DHT22;27639;48.674;9.242;2022-12-01T01:26:12;7.70;59.90
21502;DHT22;27639;48.674;9.242;2022-12-01T01:28:38;7.60;60.00
21502;DHT22;27639;48.674;9.242;2022-12-01T01:31:07;7.60;60.10
21502;DHT22;27639;48.674;9.242;2022-12-01T01:33:33;7.60;60.10
21502;DHT22;27639;48.674;9.242;2022-12-01T01:36:00;7.60;60.00
21502;DHT22;27639;48.674;9.242;2022-12-01T01:38:27;7.50;60.00
21502;DHT22;27639;48.674;9.242;2022-12-01T01:40:52;7.50;60.10
21502;DHT22;27639;48.674;9.242;2022-12-01T01:46:03;7.50;60.10
21502;DHT22;27639;48.674;9.242;2022-12-01T01:48:29;7.30;60.10
21502;DHT22;27639;48.674;9.242;2022-12-01T01:50:55;7.30;60.10
21502;DHT22;27639;48.674;9.242;2022-12-01T01:53:21;7.40;59.90
21502;DHT22;27639;48.674;9.242;2022-12-01T01:55:47;7.40;59.90
21502;DHT22;27639;48.674;9.242;2022-12-01T01:58:13;7.40;59.90
21502;DHT22;27639;48.674;9.242;2022-12-01T02:00:41;7.30;60.00
21502;DHT22;27639;48.674;9.242;2022-12-01T02:03:09;7.40;60.30
21502;DHT22;27639;48.674;9.242;2022-12-01T02:05:36;7.40;60.20
21502;DHT22;27639;48.674;9.242;2022-12-01T02:08:05;7.40;60.30
21502;DHT22;27639;48.674;9.242;2022-12-01T02:16:43;7.40;61.20
21502;DHT22;27639;48.674;9.242;2022-12-01T02:25:15;7.50;60.00
21502;DHT22;27639;48.674;9.242;2022-12-01T02:30:30;7.40;60.00
21502;DHT22;27639;48.674;9.242;2022-12-01T02:38:53;7.50;60.00
21502;DHT22;27639;48.674;9.242;2022-12-01T02:41:45;7.50;59.60
21502;DHT22;27639;48.674;9.242;2022-12-01T02:44:31;7.50;59.80
21502;DHT22;27639;48.674;9.242;2022-12-01T02:49:36;7.40;59.70
21502;DHT22;27639;48.674;9.242;2022-12-01T02:52:05;7.50;59.60
21502;DHT22;27639;48.674;9.242;2022-12-01T02:54:32;7.40;59.50
21502;DHT22;27639;48.674;9.242;2022-12-01T02:56:58;7.40;59.60
21502;DHT22;27639;48.674;9.242;2022-12-01T02:59:24;7.40;59.30
21502;DHT22;27639;48.674;9.242;2022-12-01T03:02:11;7.40;59.20
21502;DHT22;27639;48.674;9.242;2022-12-01T03:10:09;7.20;59.30
21502;DHT22;27639;48.674;9.242;2022-12-01T03:20:40;7.20;59.80
21502;DHT22;27639;48.674;9.242;2022-12-01T03:23:11;7.10;59.60
21502;DHT22;27639;48.674;9.242;2022-12-01T03:25:41;7.20;59.70
21502;DHT22;27639;48.674;9.242;2022-12-01T03:28:08;7.20;59.50
21502;DHT22;27639;48.674;9.242;2022-12-01T03:30:36;7.20;59.40
21502;DHT22;27639;48.674;9.242;2022-12-01T03:33:07;7.20;59.40
21502;DHT22;27639;48.674;9.242;2022-12-01T03:35:52;7.20;59.50
21502;DHT22;27639;48.674;9.242;2022-12-01T03:38:22;7.20;59.50
21502;DHT22;27639;48.674;9.242;2022-12-01T03:40:50;7.10;59.50
21502;DHT22;27639;48.674;9.242;2022-12-01T03:43:33;7.10;59.30
21502;DHT22;27639;48.674;9.242;2022-12-01T03:46:13;7.10;59.40
21502;DHT22;27639;48.674;9.242;2022-12-01T03:48:40;7.10;59.30
21502;DHT22;27639;48.674;9.242;2022-12-01T03:54:15;7.10;59.50
21502;DHT22;27639;48.674;9.242;2022-12-01T03:56:42;7.10;59.40
21502;DHT22;27639;48.674;9.242;2022-12-01T03:59:09;7.10;60.10
21502;DHT22;27639;48.674;9.242;2022-12-01T04:01:35;7.10;59.40
21502;DHT22;27639;48.674;9.242;2022-12-01T04:04:06;7.10;59.30
21502;DHT22;27639;48.674;9.242;2022-12-01T04:06:33;7.10;59.30
21502;DHT22;27639;48.674;9.242;2022-12-01T04:08:59;7.10;59.20
21502;DHT22;27639;48.674;9.242;2022-12-01T04:11:24;7.00;59.10
21502;DHT22;27639;48.674;9.242;2022-12-01T04:14:08;7.00;59.40
21502;DHT22;27639;48.674;9.242;2022-12-01T04:16:34;7.00;59.30
21502;DHT22;27639;48.674;9.242;2022-12-01T04:18:59;6.90;59.30
21502;DHT22;27639;48.674;9.242;2022-12-01T04:21:25;6.90;59.40
21502;DHT22;27639;48.674;9.242;2022-12-01T04:23:51;7.00;59.40
21502;DHT22;27639;48.674;9.242;2022-12-01T04:26:29;7.00;59.50
21502;DHT22;27639;48.674;9.242;2022-12-01T04:28:58;7.00;59.60
21502;DHT22;27639;48.674;9.242;2022-12-01T04:31:23;7.00;59.50
21502;DHT22;27639;48.674;9.242;2022-12-01T04:33:49;7.00;59.60
21502;DHT22;27639;48.674;9.242;2022-12-01T04:36:14;7.00;59.60
21502;DHT22;27639;48.674;9.242;2022-12-01T04:38:40;7.10;59.70
21502;DHT22;27639;48.674;9.242;2022-12-01T04:41:09;7.10;59.60
21502;DHT22;27639;48.674;9.242;2022-12-01T04:43:35;7.10;59.30
21502;DHT22;27639;48.674;9.242;2022-12-01T04:46:01;7.10;59.30
21502;DHT22;27639;48.674;9.242;2022-12-01T04:48:27;7.10;59.30
21502;DHT22;27639;48.674;9.242;2022-12-01T04:50:52;7.10;59.40
21502;DHT22;27639;48.674;9.242;2022-12-01T04:53:18;7.10;59.50
21502;DHT22;27639;48.674;9.242;2022-12-01T04:55:43;7.10;59.30
21502;DHT22;27639;48.674;9.242;2022-12-01T04:58:09;7.10;59.10
21502;DHT22;27639;48.674;9.242;2022-12-01T05:00:36;7.10;59.00
21502;DHT22;27639;48.674;9.242;2022-12-01T05:03:01;7.10;59.10
21502;DHT22;27639;48.674;9.242;2022-12-01T05:05:28;7.10;59.20
21502;DHT22;27639;48.674;9.242;2022-12-01T05:07:54;7.10;59.10
21502;DHT22;27639;48.674;9.242;2022-12-01T05:10:20;7.10;59.10
21502;DHT22;27639;48.674;9.242;2022-12-01T05:12:45;7.10;59.20
21502;DHT22;27639;48.674;9.242;2022-12-01T05:15:12;7.10;59.30
21502;DHT22;27639;48.674;9.242;2022-12-01T05:17:37;7.10;59.20
21502;DHT22;27639;48.674;9.242;2022-12-01T05:20:04;7.10;59.10
21502;DHT22;27639;48.674;9.242;2022-12-01T05:22:48;7.20;58.90
21502;DHT22;27639;48.674;9.242;2022-12-01T05:25:17;7.10;59.20
21502;DHT22;27639;48.674;9.242;2022-12-01T05:27:42;7.10;59.20
21502;DHT22;27639;48.674;9.242;2022-12-01T05:30:08;7.20;59.30
21502;DHT22;27639;48.674;9.242;2022-12-01T05:32:34;7.20;59.20
21502;DHT22;27639;48.674;9.242;2022-12-01T05:34:59;7.20;59.20
21502;DHT22;27639;48.674;9.242;2022-12-01T05:37:25;7.20;59.10
21502;DHT22;27639;48.674;9.242;2022-12-01T05:39:51;7.20;59.10
21502;DHT22;27639;48.674;9.242;2022-12-01T05:42:16;7.20;58.90
21502;DHT22;27639;48.674;9.242;2022-12-01T05:44:42;7.30;59.00
21502;DHT22;27639;48.674;9.242;2022-12-01T05:47:07;7.30;59.00
21502;DHT22;27639;48.674;9.242;2022-12-01T05:49:33;7.30;58.90
21502;DHT22;27639;48.674;9.242;2022-12-01T05:51:58;7.30;58.80
21502;DHT22;27639;48.674;9.242;2022-12-01T05:54:24;7.30;58.80
21502;DHT22;27639;48.674;9.242;2022-12-01T05:56:49;7.30;58.80
21502;DHT22;27639;48.674;9.242;2022-12-01T05:59:15;7.30;58.60
21502;DHT22;27639;48.674;9.242;2022-12-01T06:01:40;7.30;58.70
21502;DHT22;27639;48.674;9.242;2022-12-01T06:04:06;7.20;58.70
21502;DHT22;27639;48.674;9.242;2022-12-01T06:06:33;7.20;58.70
21502;DHT22;27639;48.674;9.242;2022-12-01T06:08:58;7.30;58.70
21502;DHT22;27639;48.674;9.242;2022-12-01T06:11:24;7.30;58.60
21502;DHT22;27639;48.674;9.242;2022-12-01T06:13:49;7.20;58.60
21502;DHT22;27639;48.674;9.242;2022-12-01T06:16:15;7.20;58.60
21502;DHT22;27639;48.674;9.242;2022-12-01T06:18:40;7.20;58.60
21502;DHT22;27639;48.674;9.242;2022-12-01T06:21:06;7.20;58.30
21502;DHT22;27639;48.674;9.242;2022-12-01T06:23:32;7.10;58.40
21502;DHT22;27639;48.674;9.242;2022-12-01T06:25:57;7.10;58.50
21502;DHT22;27639;48.674;9.242;2022-12-01T06:28:23;7.10;58.50
21502;DHT22;27639;48.674;9.242;2022-12-01T06:30:48;7.10;58.50
21502;DHT22;27639;48.674;9.242;2022-12-01T06:33:14;7.10;58.70
21502;DHT22;27639;48.674;9.242;2022-12-01T06:35:40;7.00;58.70
21502;DHT22;27639;48.674;9.242;2022-12-01T06:38:05;7.10;58.80
21502;DHT22;27639;48.674;9.242;2022-12-01T06:40:31;7.10;58.70
21502;DHT22;27639;48.674;9.242;2022-12-01T06:43:00;7.00;58.50
21502;DHT22;27639;48.674;9.242;2022-12-01T06:45:30;7.10;58.50
21502;DHT22;27639;48.674;9.242;2022-12-01T06:47:56;7.00;58.40
21502;DHT22;27639;48.674;9.242;2022-12-01T06:50:22;7.00;58.60
21502;DHT22;27639;48.674;9.242;2022-12-01T06:52:48;7.00;58.60
21502;DHT22;27639;48.674;9.242;2022-12-01T06:55:13;7.00;58.80
21502;DHT22;27639;48.674;9.242;2022-12-01T06:57:39;7.00;58.90
21502;DHT22;27639;48.674;9.242;2022-12-01T07:00:05;7.00;59.00
21502;DHT22;27639;48.674;9.242;2022-12-01T07:02:31;7.00;58.90
21502;DHT22;27639;48.674;9.242;2022-12-01T07:04:57;7.00;58.90
21502;DHT22;27639;48.674;9.242;2022-12-01T07:07:22;7.00;58.80
21502;DHT22;27639;48.674;9.242;2022-12-01T07:09:48;7.00;58.80
21502;DHT22;27639;48.674;9.242;2022-12-01T07:12:14;7.00;59.00
21502;DHT22;27639;48.674;9.242;2022-12-01T07:14:39;7.00;59.10
21502;DHT22;27639;48.674;9.242;2022-12-01T07:17:07;7.00;59.30
21502;DHT22;27639;48.674;9.242;2022-12-01T07:19:33;7.00;59.30
21502;DHT22;27639;48.674;9.242;2022-12-01T07:21:59;7.00;59.30
21502;DHT22;27639;48.674;9.242;2022-12-01T07:24:24;7.00;59.20
21502;DHT22;27639;48.674;9.242;2022-12-01T07:26:50;7.00;59.10
21502;DHT22;27639;48.674;9.242;2022-12-01T07:29:15;7.00;59.00
21502;DHT22;27639;48.674;9.242;2022-12-01T07:31:41;7.00;59.00
21502;DHT22;27639;48.674;9.242;2022-12-01T07:34:10;7.00;59.00
21502;DHT22;27639;48.674;9.242;2022-12-01T07:36:35;7.00;59.00
21502;DHT22;27639;48.674;9.242;2022-12-01T07:39:05;7.10;59.10
21502;DHT22;27639;48.674;9.242;2022-12-01T07:41:32;7.00;59.00
21502;DHT22;27639;48.674;9.242;2022-12-01T07:43:58;7.00;59.20
21502;DHT22;27639;48.674;9.242;2022-12-01T07:46:26;7.00;59.20
21502;DHT22;27639;48.674;9.242;2022-12-01T07:48:53;7.10;59.20
21502;DHT22;27639;48.674;9.242;2022-12-01T07:51:19;7.10;59.20
21502;DHT22;27639;48.674;9.242;2022-12-01T07:53:47;7.10;59.20
21502;DHT22;27639;48.674;9.242;2022-12-01T07:56:14;7.10;59.20
21502;DHT22;27639;48.674;9.242;2022-12-01T07:58:40;7.10;59.10
21502;DHT22;27639;48.674;9.242;2022-12-01T08:01:14;7.20;59.30
21502;DHT22;27639;48.674;9.242;2022-12-01T08:03:40;7.10;59.10
21502;DHT22;27639;48.674;9.242;2022-12-01T08:06:06;7.00;59.10
21502;DHT22;27639;48.674;9.242;2022-12-01T08:08:34;7.00;59.50
21502;DHT22;27639;48.674;9.242;2022-12-01T08:11:02;7.10;59.60
21502;DHT22;27639;48.674;9.242;2022-12-01T08:13:28;7.10;59.60
21502;DHT22;27639;48.674;9.242;2022-12-01T08:15:53;7.10;59.60
21502;DHT22;27639;48.674;9.242;2022-12-01T08:18:19;7.20;59.40
21502;DHT22;27639;48.674;9.242;2022-12-01T08:20:45;7.20;59.30
21502;DHT22;27639;48.674;9.242;2022-12-01T08:23:10;7.20;59.40
21502;DHT22;27639;48.674;9.242;2022-12-01T08:25:36;7.20;59.40
21502;DHT22;27639;48.674;9.242;2022-12-01T08:28:01;7.20;59.50
21502;DHT22;27639;48.674;9.242;2022-12-01T08:30:27;7.20;59.70
21502;DHT22;27639;48.674;9.242;2022-12-01T08:32:54;7.20;60.00
21502;DHT22;27639;48.674;9.242;2022-12-01T08:35:20;7.20;59.80
21502;DHT22;27639;48.674;9.242;2022-12-01T08:37:46;7.20;59.60
21502;DHT22;27639;48.674;9.242;2022-12-01T08:40:12;7.30;59.40
21502;DHT22;27639;48.674;9.242;2022-12-01T08:42:37;7.20;59.30
21502;DHT22;27639;48.674;9.242;2022-12-01T08:45:04;7.20;59.30
21502;DHT22;27639;48.674;9.242;2022-12-01T08:47:29;7.20;59.40
21502;DHT22;27639;48.674;9.242;2022-12-01T08:49:55;7.20;59.50
21502;DHT22;27639;48.674;9.242;2022-12-01T08:52:20;7.20;59.60
21502;DHT22;27639;48.674;9.242;2022-12-01T08:54:46;7.20;59.30
21502;DHT22;27639;48.674;9.242;2022-12-01T08:57:12;7.20;59.50
21502;DHT22;27639;48.674;9.242;2022-12-01T08:59:37;7.20;59.40
21502;DHT22;27639;48.674;9.242;2022-12-01T09:02:03;7.20;59.60
21502;DHT22;27639;48.674;9.242;2022-12-01T09:04:29;7.10;59.70
21502;DHT22;27639;48.674;9.242;2022-12-01T09:06:55;7.20;59.80
21502;DHT22;27639;48.674;9.242;2022-12-01T09:09:24;7.20;59.70
21502;DHT22;27639;48.674;9.242;2022-12-01T09:11:51;7.20;59.40
21502;DHT22;27639;48.674;9.242;2022-12-01T09:14:18;7.20;59.30
21502;DHT22;27639;48.674;9.242;2022-12-01T09:16:45;7.20;59.30
21502;DHT22;27639;48.674;9.242;2022-12-01T09:19:12;7.20;59.50
21502;DHT22;27639;48.674;9.242;2022-12-01T09:21:38;7.20;59.60
21502;DHT22;27639;48.674;9.242;2022-12-01T09:24:05;7.20;59.30
21502;DHT22;27639;48.674;9.242;2022-12-01T09:26:32;7.20;59.30
21502;DHT22;27639;48.674;9.242;2022-12-01T09:29:04;7.20;59.60
21502;DHT22;27639;48.674;9.242;2022-12-01T09:31:30;7.20;59.50
21502;DHT22;27639;48.674;9.242;2022-12-01T09:33:58;7.20;59.60
21502;DHT22;27639;48.674;9.242;2022-12-01T09:36:25;7.20;59.50
21502;DHT22;27639;48.674;9.242;2022-12-01T09:38:51;7.10;59.60
21502;DHT22;27639;48.674;9.242;2022-12-01T09:41:23;7.10;59.70
21502;DHT22;27639;48.674;9.242;2022-12-01T09:47:03;7.20;59.90
21502;DHT22;27639;48.674;9.242;2022-12-01T09:52:20;7.30;59.90
21502;DHT22;27639;48.674;9.242;2022-12-01T09:54:47;7.30;59.90
21502;DHT22;27639;48.674;9.242;2022-12-01T09:57:17;7.30;59.80
21502;DHT22;27639;48.674;9.242;2022-12-01T09:59:45;7.30;59.70
21502;DHT22;27639;48.674;9.242;2022-12-01T10:04:47;7.30;59.90
21502;DHT22;27639;48.674;9.242;2022-12-01T10:07:38;7.30;60.00
21502;DHT22;27639;48.674;9.242;2022-12-01T10:10:19;7.40;60.00
21502;DHT22;27639;48.674;9.242;2022-12-01T10:12:48;7.30;59.80
21502;DHT22;27639;48.674;9.242;2022-12-01T10:15:42;7.40;59.90
21502;DHT22;27639;48.674;9.242;2022-12-01T10:21:01;7.30;60.10
21502;DHT22;27639;48.674;9.242;2022-12-01T10:26:20;7.40;60.40
21502;DHT22;27639;48.674;9.242;2022-12-01T10:31:34;7.40;60.00
21502;DHT22;27639;48.674;9.242;2022-12-01T10:34:15;7.50;60.00
21502;DHT22;27639;48.674;9.242;2022-12-01T10:36:41;7.50;60.00
21502;DHT22;27639;48.674;9.242;2022-12-01T10:39:15;7.50;60.00
21502;DHT22;27639;48.674;9.242;2022-12-01T10:41:42;7.50;60.80
21502;DHT22;27639;48.674;9.242;2022-12-01T10:44:08;7.50;60.00
21502;DHT22;27639;48.674;9.242;2022-12-01T10:46:44;7.50;60.00
21502;DHT22;27639;48.674;9.242;2022-12-01T10:49:13;7.50;60.00
21502;DHT22;27639;48.674;9.242;2022-12-01T10:51:51;7.50;60.00
21502;DHT22;27639;48.674;9.242;2022-12-01T10:54:18;7.50;60.00
21502;DHT22;27639;48.674;9.242;2022-12-01T10:56:46;7.50;60.00
21502;DHT22;27639;48.674;9.242;2022-12-01T10:59:35;7.60;60.00
21502;DHT22;27639;48.674;9.242;2022-12-01T11:02:04;7.60;59.80
21502;DHT22;27639;48.674;9.242;2022-12-01T11:04:39;7.60;59.60
21502;DHT22;27639;48.674;9.242;2022-12-01T11:07:18;7.70;59.50
21502;DHT22;27639;48.674;9.242;2022-12-01T11:09:45;7.60;59.50
21502;DHT22;27639;48.674;9.242;2022-12-01T11:12:15;7.60;59.70
21502;DHT22;27639;48.674;9.242;2022-12-01T11:14:43;7.60;60.50
21502;DHT22;27639;48.674;9.242;2022-12-01T11:17:45;7.60;59.50
21502;DHT22;27639;48.674;9.242;2022-12-01T11:25:58;7.60;59.30
21502;DHT22;27639;48.674;9.242;2022-12-01T11:28:24;7.60;59.50
21502;DHT22;27639;48.674;9.242;2022-12-01T11:30:59;7.60;59.50
21502;DHT22;27639;48.674;9.242;2022-12-01T11:33:26;7.60;59.60
21502;DHT22;27639;48.674;9.242;2022-12-01T11:35:52;7.60;59.60
21502;DHT22;27639;48.674;9.242;2022-12-01T11:38:22;7.60;59.70
21502;DHT22;27639;48.674;9.242;2022-12-01T11:40:51;7.60;59.80
21502;DHT22;27639;48.674;9.242;2022-12-01T11:43:35;7.60;59.60
21502;DHT22;27639;48.674;9.242;2022-12-01T11:46:04;7.60;59.20
21502;DHT22;27639;48.674;9.242;2022-12-01T11:48:31;7.60;59.30
21502;DHT22;27639;48.674;9.242;2022-12-01T11:53:37;7.60;59.40
21502;DHT22;27639;48.674;9.242;2022-12-01T11:56:14;7.60;59.40
21502;DHT22;27639;48.674;9.242;2022-12-01T11:58:41;7.70;59.40
21502;DHT22;27639;48.674;9.242;2022-12-01T12:01:23;7.70;59.50
21502;DHT22;27639;48.674;9.242;2022-12-01T12:04:29;7.70;59.40
21502;DHT22;27639;48.674;9.242;2022-12-01T12:16:00;7.70;60.10
21502;DHT22;27639;48.674;9.242;2022-12-01T12:46:11;7.90;59.50
21502;DHT22;27639;48.674;9.242;2022-12-01T12:51:43;7.90;59.10
21502;DHT22;27639;48.674;9.242;2022-12-01T12:56:53;7.90;59.20
21502;DHT22;27639;48.674;9.242;2022-12-01T12:59:45;8.00;59.30
21502;DHT22;27639;48.674;9.242;2022-12-01T13:02:32;8.00;59.50
21502;DHT22;27639;48.674;9.242;2022-12-01T13:05:28;8.00;59.40
21502;DHT22;27639;48.674;9.242;2022-12-01T13:10:49;8.10;59.20
21502;DHT22;27639;48.674;9.242;2022-12-01T13:13:38;8.00;59.10
21502;DHT22;27639;48.674;9.242;2022-12-01T13:16:10;8.00;59.00
21502;DHT22;27639;48.674;9.242;2022-12-01T13:18:47;8.00;59.10
21502;DHT22;27639;48.674;9.242;2022-12-01T13:21:17;8.10;59.10
21502;DHT22;27639;48.674;9.242;2022-12-01T13:23:44;8.10;59.20
21502;DHT22;27639;48.674;9.242;2022-12-01T13:26:12;8.10;59.10
21502;DHT22;27639;48.674;9.242;2022-12-01T13:28:44;8.10;59.10
21502;DHT22;27639;48.674;9.242;2022-12-01T13:31:13;8.10;59.10
21502;DHT22;27639;48.674;9.242;2022-12-01T13:36:20;8.10;58.80
21502;DHT22;27639;48.674;9.242;2022-12-01T13:39:13;8.10;58.90
21502;DHT22;27639;48.674;9.242;2022-12-01T13:41:42;8.10;58.90
21502;DHT22;27639;48.674;9.242;2022-12-01T13:44:30;8.10;59.30
21502;DHT22;27639;48.674;9.242;2022-12-01T13:47:00;8.10;59.10
21502;DHT22;27639;48.674;9.242;2022-12-01T13:49:47;8.10;59.10
21502;DHT22;27639;48.674;9.242;2022-12-01T13:57:42;8.10;58.70
21502;DHT22;27639;48.674;9.242;2022-12-01T14:00:22;8.10;59.10
21502;DHT22;27639;48.674;9.242;2022-12-01T14:08:31;8.20;59.30
21502;DHT22;27639;48.674;9.242;2022-12-01T14:11:17;8.10;59.00
21502;DHT22;27639;48.674;9.242;2022-12-01T14:16:56;8.20;58.80
21502;DHT22;27639;48.674;9.242;2022-12-01T14:21:56;8.10;58.90
21502;DHT22;27639;48.674;9.242;2022-12-01T14:24:28;8.00;59.20
21502;DHT22;27639;48.674;9.242;2022-12-01T14:26:55;8.10;59.30
21502;DHT22;27639;48.674;9.242;2022-12-01T14:29:35;8.10;59.30
21502;DHT22;27639;48.674;9.242;2022-12-01T14:34:38;8.20;59.20
21502;DHT22;27639;48.674;9.242;2022-12-01T14:37:11;8.20;58.90
21502;DHT22;27639;48.674;9.242;2022-12-01T14:39:40;8.20;59.10
21502;DHT22;27639;48.674;9.242;2022-12-01T14:44:46;8.20;59.00
21502;DHT22;27639;48.674;9.242;2022-12-01T14:54:56;8.20;59.20
21502;DHT22;27639;48.674;9.242;2022-12-01T14:57:31;8.20;59.20
21502;DHT22;27639;48.674;9.242;2022-12-01T15:00:10;8.20;59.10
21502;DHT22;27639;48.674;9.242;2022-12-01T15:02:59;8.20;59.00
21502;DHT22;27639;48.674;9.242;2022-12-01T15:05:27;8.20;58.90
21502;DHT22;27639;48.674;9.242;2022-12-01T15:07:56;8.20;58.80
21502;DHT22;27639;48.674;9.242;2022-12-01T15:10:29;8.20;58.90
21502;DHT22;27639;48.674;9.242;2022-12-01T15:13:12;8.20;59.00
21502;DHT22;27639;48.674;9.242;2022-12-01T15:15:52;8.20;59.00
21502;DHT22;27639;48.674;9.242;2022-12-01T15:18:36;8.20;59.00
21502;DHT22;27639;48.674;9.242;2022-12-01T15:21:06;8.10;58.70
21502;DHT22;27639;48.674;9.242;2022-12-01T15:23:34;8.20;59.10
21502;DHT22;27639;48.674;9.242;2022-12-01T15:25:59;8.20;59.00
21502;DHT22;27639;48.674;9.242;2022-12-01T15:28:31;8.20;59.00
21502;DHT22;27639;48.674;9.242;2022-12-01T15:30:58;8.20;59.10
21502;DHT22;27639;48.674;9.242;2022-12-01T15:33:30;8.20;59.20
21502;DHT22;27639;48.674;9.242;2022-12-01T15:35:58;8.20;59.10
21502;DHT22;27639;48.674;9.242;2022-12-01T15:38:27;8.20;59.00
21502;DHT22;27639;48.674;9.242;2022-12-01T15:40:55;8.20;59.00
21502;DHT22;27639;48.674;9.242;2022-12-01T15:43:27;8.20;59.00
21502;DHT22;27639;48.674;9.242;2022-12-01T15:45:59;8.20;58.90
21502;DHT22;27639;48.674;9.242;2022-12-01T15:48:33;8.20;58.90
21502;DHT22;27639;48.674;9.242;2022-12-01T15:51:01;8.20;59.00
21502;DHT22;27639;48.674;9.242;2022-12-01T15:53:29;8.20;59.10
21502;DHT22;27639;48.674;9.242;2022-12-01T15:56:01;8.20;59.00
21502;DHT22;27639;48.674;9.242;2022-12-01T15:58:31;8.20;59.10
21502;DHT22;27639;48.674;9.242;2022-12-01T16:00:58;8.20;59.00
21502;DHT22;27639;48.674;9.242;2022-12-01T16:03:25;8.10;59.10
21502;DHT22;27639;48.674;9.242;2022-12-01T16:05:51;8.10;59.10
21502;DHT22;27639;48.674;9.242;2022-12-01T16:08:19;8.20;59.30
21502;DHT22;27639;48.674;9.242;2022-12-01T16:10:45;8.20;59.30
21502;DHT22;27639;48.674;9.242;2022-12-01T16:16:35;8.20;59.30
21502;DHT22;27639;48.674;9.242;2022-12-01T16:19:25;8.20;59.30
21502;DHT22;27639;48.674;9.242;2022-12-01T16:22:15;8.20;59.50
21502;DHT22;27639;48.674;9.242;2022-12-01T16:24:51;8.20;59.70
21502;DHT22;27639;48.674;9.242;2022-12-01T16:27:30;8.20;59.80
21502;DHT22;27639;48.674;9.242;2022-12-01T16:30:22;8.20;59.80
21502;DHT22;27639;48.674;9.242;2022-12-01T16:32:49;8.10;59.80
21502;DHT22;27639;48.674;9.242;2022-12-01T16:35:24;8.10;60.10
21502;DHT22;27639;48.674;9.242;2022-12-01T16:37:51;8.20;60.00
21502;DHT22;27639;48.674;9.242;2022-12-01T16:40:16;8.20;59.90
21502;DHT22;27639;48.674;9.242;2022-12-01T16:42:42;8.20;60.00
21502;DHT22;27639;48.674;9.242;2022-12-01T16:45:10;8.20;60.00
21502;DHT22;27639;48.674;9.242;2022-12-01T16:47:39;8.20;59.90
21502;DHT22;27639;48.674;9.242;2022-12-01T16:50:05;8.20;59.90
21502;DHT22;27639;48.674;9.242;2022-12-01T16:52:31;8.30;60.00
21502;DHT22;27639;48.674;9.242;2022-12-01T16:54:57;8.20;60.10
21502;DHT22;27639;48.674;9.242;2022-12-01T16:57:22;8.20;60.20
21502;DHT22;27639;48.674;9.242;2022-12-01T16:59:48;8.20;60.30
21502;DHT22;27639;48.674;9.242;2022-12-01T17:02:13;8.20;60.50
21502;DHT22;27639;48.674;9.242;2022-12-01T17:04:39;8.30;60.70
21502;DHT22;27639;48.674;9.242;2022-12-01T17:07:04;8.20;60.70
21502;DHT22;27639;48.674;9.242;2022-12-01T17:09:30;8.20;60.60
21502;DHT22;27639;48.674;9.242;2022-12-01T17:11:56;8.20;60.70
21502;DHT22;27639;48.674;9.242;2022-12-01T17:14:24;8.20;60.60
21502;DHT22;27639;48.674;9.242;2022-12-01T17:16:50;8.30;60.80
21502;DHT22;27639;48.674;9.242;2022-12-01T17:19:15;8.20;60.60
21502;DHT22;27639;48.674;9.242;2022-12-01T17:21:41;8.30;60.80
21502;DHT22;27639;48.674;9.242;2022-12-01T17:24:07;8.20;60.70
21502;DHT22;27639;48.674;9.242;2022-12-01T17:26:33;8.30;60.80
21502;DHT22;27639;48.674;9.242;2022-12-01T17:28:59;8.30;60.90
21502;DHT22;27639;48.674;9.242;2022-12-01T17:31:25;8.30;60.90
21502;DHT22;27639;48.674;9.242;2022-12-01T17:33:50;8.30;60.90
21502;DHT22;27639;48.674;9.242;2022-12-01T17:36:17;8.30;61.00
21502;DHT22;27639;48.674;9.242;2022-12-01T17:38:44;8.20;60.90
21502;DHT22;27639;48.674;9.242;2022-12-01T17:41:13;8.20;61.00
21502;DHT22;27639;48.674;9.242;2022-12-01T17:43:39;8.20;61.10
21502;DHT22;27639;48.674;9.242;2022-12-01T17:46:06;8.30;61.30
21502;DHT22;27639;48.674;9.242;2022-12-01T17:48:42;8.30;61.20
21502;DHT22;27639;48.674;9.242;2022-12-01T17:51:09;8.30;61.00
21502;DHT22;27639;48.674;9.242;2022-12-01T17:53:36;8.30;61.20
21502;DHT22;27639;48.674;9.242;2022-12-01T17:56:06;8.30;61.30
21502;DHT22;27639;48.674;9.242;2022-12-01T17:58:32;8.30;61.30
21502;DHT22;27639;48.674;9.242;2022-12-01T18:00:57;8.30;61.30
21502;DHT22;27639;48.674;9.242;2022-12-01T18:03:23;8.30;61.30
21502;DHT22;27639;48.674;9.242;2022-12-01T18:06:00;8.30;61.40
21502;DHT22;27639;48.674;9.242;2022-12-01T18:08:27;8.30;61.30
21502;DHT22;27639;48.674;9.242;2022-12-01T18:10:53;8.30;61.50
21502;DHT22;27639;48.674;9.242;2022-12-01T18:13:20;8.30;61.50
21502;DHT22;27639;48.674;9.242;2022-12-01T18:15:46;8.30;61.50
21502;DHT22;27639;48.674;9.242;2022-12-01T18:18:11;8.30;61.50
21502;DHT22;27639;48.674;9.242;2022-12-01T18:20:41;8.30;61.50
21502;DHT22;27639;48.674;9.242;2022-12-01T18:23:07;8.30;61.50
21502;DHT22;27639;48.674;9.242;2022-12-01T18:25:37;8.40;61.60